Time;durP1;ratioP1;P1;durP2;ratioP2;P2;SDS_P1;SDS_P2;PMS_P1;PMS_P2;Temp;Humidity;BMP_temperature;BMP_pressure;BME280_temperature;BME280_humidity;BME280_pressure;Samples;Min_cycle;Max_cycle;Signal;HPM_P1;HPM_P2
2022/01/19 00:01:12;;;;;;;2.47;2.27;;;3.60;74.30;;;2.06;76.18;99647.19;5058185;28;20445;-86
2022/01/19 00:03:39;;;;;;;3.13;2.80;;;3.60;74.50;;;2.10;76.29;99643.28;5057795;28;20538;-86
2022/01/19 00:06:07;;;;;;;3.90;2.80;;;3.60;74.60;;;2.03;76.92;99636.72;5078247;28;20522;-86
2022/01/19 00:08:36;;;;;;;5.60;3.50;;;3.50;74.80;;;2.15;76.41;99629.59;5058316;28;20442;-86
2022/01/19 00:11:03;;;;;;;3.90;3.27;;;3.60;74.80;;;2.19;76.26;99618.53;5059785;28;20453;-85
2022/01/19 00:13:30;;;;;;;4.03;3.27;;;3.60;74.80;;;2.07;76.26;99601.72;5076375;28;20516;-84
2022/01/19 00:15:58;;;;;;;4.73;3.10;;;3.60;74.80;;;1.96;76.86;99577.72;5074681;28;20446;-85
2022/01/19 00:18:26;;;;;;;4.37;3.97;;;3.60;75.20;;;1.98;76.92;99565.13;5076775;28;20930;-84
2022/01/19 00:20:55;;;;;;;4.47;3.80;;;3.60;75.10;;;1.89;78.22;99577.34;5076188;28;20917;-87
2022/01/19 00:23:24;;;;;;;4.27;3.87;;;3.50;75.20;;;1.91;78.03;99570.09;5076551;28;20580;-84
2022/01/19 00:25:55;;;;;;;5.93;4.90;;;3.50;75.70;;;2.00;78.16;99589.84;5074136;28;20564;-84
2022/01/19 00:28:22;;;;;;;5.50;4.50;;;3.50;75.80;;;2.10;77.05;99589.97;5081244;28;20956;-86
2022/01/19 00:30:50;;;;;;;5.40;4.40;;;3.50;75.60;;;2.07;77.54;99568.88;5058850;28;20853;-84
2022/01/19 00:33:19;;;;;;;4.67;4.27;;;3.50;75.50;;;1.36;77.67;99496.19;5057425;28;20484;-84
2022/01/19 00:35:48;;;;;;;5.90;5.30;;;3.40;75.50;;;1.93;77.77;99573.50;5058996;28;20522;-85
2022/01/19 00:38:17;;;;;;;7.97;5.50;;;3.40;75.60;;;1.84;77.86;99574.19;5075591;28;20925;-84
2022/01/19 00:40:45;;;;;;;8.17;6.03;;;3.40;75.50;;;1.86;77.90;99574.94;5075193;28;20470;-83
2022/01/19 00:43:14;;;;;;;5.73;5.13;;;3.30;75.90;;;1.95;78.09;99574.22;5075169;28;20526;-83
2022/01/19 00:45:42;;;;;;;5.07;4.57;;;3.40;76.10;;;2.06;77.89;99568.00;5075583;28;20440;-83
2022/01/19 00:48:09;;;;;;;5.33;4.77;;;3.50;76.10;;;1.93;77.92;99565.50;5064271;28;20497;-83
2022/01/19 00:50:36;;;;;;;6.13;5.47;;;3.40;76.00;;;1.91;78.06;99559.44;5076567;28;20468;-85
2022/01/19 00:53:02;;;;;;;6.43;5.37;;;3.40;75.80;;;1.40;78.06;99486.97;5080633;28;20460;-87
2022/01/19 00:55:30;;;;;;;5.80;5.10;;;3.40;76.00;;;1.92;78.06;99538.94;5092033;28;20442;-88
2022/01/19 00:57:58;;;;;;;8.10;5.73;;;3.40;75.90;;;1.88;78.44;99525.00;5078653;28;20520;-85
2022/01/19 01:00:29;;;;;;;5.70;4.97;;;3.40;76.20;;;1.81;78.47;99537.13;5058675;28;20533;-86
2022/01/19 01:02:56;;;;;;;5.60;5.07;;;3.40;76.20;;;1.80;78.85;99538.94;5075331;28;20993;-85
2022/01/19 01:05:24;;;;;;;5.30;4.80;;;3.40;76.40;;;1.83;77.46;99535.19;5073682;28;20504;-82
2022/01/19 01:07:51;;;;;;;6.30;5.10;;;3.40;75.50;;;1.63;78.14;99529.63;5074586;28;20500;-81
2022/01/19 01:10:21;;;;;;;5.80;4.90;;;3.30;75.70;;;1.64;78.63;99515.34;5058254;28;20513;-85
2022/01/19 01:12:51;;;;;;;7.00;5.73;;;3.20;75.90;;;1.72;77.58;99517.41;5074928;28;20417;-87
2022/01/19 01:15:30;;;;;;;5.70;4.80;;;3.30;75.70;;;1.53;78.46;99508.19;5075999;28;20453;-89
2022/01/19 01:18:20;;;;;;;5.97;5.40;;;3.10;75.80;;;1.61;78.74;99499.59;5076452;28;20544;-88
2022/01/19 01:20:50;;;;;;;6.37;5.70;;;3.10;76.30;;;1.52;78.64;99495.84;5088010;28;20446;-86
2022/01/19 01:23:19;;;;;;;8.30;5.93;;;3.10;76.20;;;1.59;78.47;99490.84;5070271;28;20437;-87
2022/01/19 01:25:46;;;;;;;6.10;5.30;;;3.10;76.40;;;1.68;78.22;99492.81;5075751;28;20530;-88
2022/01/19 01:28:14;;;;;;;6.37;5.60;;;3.20;76.20;;;1.63;78.67;99481.66;5075375;28;20512;-87
2022/01/19 01:30:42;;;;;;;7.70;5.70;;;3.20;76.30;;;1.64;78.78;99482.50;5074714;28;20439;-86
2022/01/19 01:33:11;;;;;;;7.57;5.40;;;3.10;76.40;;;1.48;79.14;99440.25;5075749;28;20447;-81
2022/01/19 01:35:39;;;;;;;9.60;5.60;;;3.10;76.40;;;1.59;79.01;99453.56;5073620;28;20441;-81
2022/01/19 01:38:07;;;;;;;9.03;7.27;;;3.10;76.40;;;1.53;79.47;99451.38;5074396;28;20529;-81
2022/01/19 01:40:35;;;;;;;6.90;5.50;;;3.10;76.60;;;1.49;79.75;99452.63;5074050;28;20847;-82
2022/01/19 01:43:05;;;;;;;6.00;5.40;;;3.00;76.90;;;1.49;79.82;99453.44;5056465;28;20444;-83
2022/01/19 01:45:36;;;;;;;8.30;5.73;;;3.00;77.10;;;1.54;79.20;99466.41;5075229;28;20426;-85
2022/01/19 01:48:11;;;;;;;7.00;6.00;;;3.10;77.00;;;1.66;79.27;99470.75;5056969;28;20540;-85
2022/01/19 01:53:27;;;;;;;5.50;4.80;;;3.20;77.20;;;1.59;79.76;99472.19;5057880;28;20806;-81
2022/01/19 01:55:57;;;;;;;5.63;5.03;;;3.10;77.10;;;1.68;79.04;99484.81;5074951;28;20441;-83
2022/01/19 01:58:24;;;;;;;5.23;4.73;;;3.20;77.10;;;1.64;79.22;99472.72;5075779;28;20437;-84
2022/01/19 02:00:52;;;;;;;6.70;5.00;;;3.20;77.00;;;1.57;79.13;99465.31;5059830;28;20472;-83
2022/01/19 02:03:19;;;;;;;5.30;4.80;;;3.10;77.10;;;1.59;79.08;99472.19;5078094;28;20528;-86
2022/01/19 02:06:07;;;;;;;5.87;5.33;;;3.10;76.70;;;1.55;79.25;99460.09;5078285;28;20453;-86
2022/01/19 02:08:39;;;;;;;7.03;6.07;;;3.10;77.00;;;1.60;79.07;99447.28;5059615;28;20477;-82
2022/01/19 02:11:31;;;;;;;7.17;6.47;;;3.10;77.10;;;1.75;78.55;99449.69;5076670;28;20449;-83
2022/01/19 02:16:52;;;;;;;6.93;5.50;;;3.20;76.70;;;1.66;78.45;99440.59;5078138;28;20487;-84
2022/01/19 02:22:05;;;;;;;7.20;5.70;;;3.00;76.90;;;1.46;79.28;99413.75;5078684;28;20442;-85
2022/01/19 02:24:41;;;;;;;5.30;4.83;;;3.00;77.00;;;1.38;79.54;99424.16;5060264;28;20532;-84
2022/01/19 02:27:15;;;;;;;5.43;5.00;;;3.00;76.90;;;1.42;79.99;99426.44;5060225;28;20544;-83
2022/01/19 02:30:17;;;;;;;5.47;4.97;;;2.90;77.10;;;1.46;79.17;99412.91;5060372;28;20433;-84
2022/01/19 02:40:53;;;;;;;6.07;5.47;;;3.10;77.20;;;1.45;79.54;99413.88;5088172;28;20441;-85
2022/01/19 02:43:26;;;;;;;6.53;4.93;;;3.00;77.00;;;1.32;80.88;99419.31;5087003;28;20449;-83
2022/01/19 02:51:28;;;;;;;5.43;4.87;;;2.90;77.70;;;1.34;80.47;99390.75;5063533;28;20445;-82
2022/01/19 02:53:56;;;;;;;6.57;6.03;;;2.90;77.80;;;1.19;80.75;99368.84;5077156;28;20502;-83
2022/01/19 02:56:27;;;;;;;5.37;4.93;;;2.90;78.10;;;1.37;80.42;99378.03;5059607;28;20445;-82
2022/01/19 02:59:00;;;;;;;6.73;5.10;;;2.90;77.90;;;1.40;80.12;99375.13;5075795;28;20438;-83
2022/01/19 03:09:50;;;;;;;6.13;5.53;;;2.80;77.90;;;1.21;81.04;99366.91;5075880;28;20445;-83
2022/01/19 03:12:18;;;;;;;8.03;6.27;;;2.80;78.00;;;1.24;80.64;99358.69;5075766;28;20855;-84
2022/01/19 03:14:45;;;;;;;5.97;5.47;;;2.80;78.40;;;1.33;80.51;99365.94;5076775;28;20437;-83
2022/01/19 03:17:12;;;;;;;7.23;5.83;;;2.80;77.90;;;0.96;80.50;99311.16;5081516;28;20462;-82
2022/01/19 03:19:41;;;;;;;7.17;6.37;;;2.80;78.20;;;1.26;80.76;99367.38;5081494;28;20445;-83
2022/01/19 03:22:08;;;;;;;6.83;6.20;;;2.80;78.00;;;1.26;80.63;99357.59;5077341;28;20429;-83
2022/01/19 03:24:38;;;;;;;6.13;5.53;;;2.80;78.00;;;1.20;81.14;99357.22;5061917;28;20518;-84
2022/01/19 03:27:08;;;;;;;10.33;6.60;;;2.70;78.10;;;1.26;80.45;99351.41;5081683;28;20459;-84
2022/01/19 03:29:35;;;;;;;6.63;6.10;;;2.80;78.10;;;1.25;81.27;99352.38;5099882;28;20437;-85
2022/01/19 03:32:02;;;;;;;8.43;6.17;;;2.80;78.40;;;1.29;80.27;99335.22;5078232;28;20453;-85
2022/01/19 03:34:29;;;;;;;9.60;6.27;;;2.90;78.10;;;1.36;80.11;99339.06;5071184;28;20448;-86
2022/01/19 03:36:57;;;;;;;7.43;6.83;;;2.90;77.90;;;1.34;79.97;99330.34;5059993;28;20532;-85
2022/01/19 03:39:24;;;;;;;6.60;6.00;;;2.90;78.00;;;1.29;80.12;99343.19;5058333;28;20446;-85
2022/01/19 03:41:51;;;;;;;9.37;6.77;;;2.90;77.60;;;1.35;80.40;99349.81;5058282;28;21011;-84
2022/01/19 03:44:20;;;;;;;7.73;6.83;;;2.90;77.80;;;0.87;80.41;99276.44;5078712;28;20429;-86
2022/01/19 03:46:55;;;;;;;7.93;6.67;;;2.80;78.00;;;1.37;80.77;99351.41;5077100;28;20429;-84
2022/01/19 03:49:24;;;;;;;7.00;6.30;;;2.80;78.10;;;1.39;80.30;99352.13;5059000;28;20474;-82
2022/01/19 03:51:52;;;;;;;6.93;6.23;;;2.90;78.20;;;1.23;80.71;99349.00;5076289;28;20438;-83
2022/01/19 03:54:19;;;;;;;9.50;6.73;;;2.80;77.90;;;1.24;80.94;99348.88;5058721;28;20443;-83
2022/01/19 03:56:47;;;;;;;7.40;6.70;;;2.80;78.20;;;1.16;80.76;99334.50;5078221;28;20772;-84
2022/01/19 03:59:14;;;;;;;7.10;6.10;;;2.70;78.00;;;1.21;80.38;99348.28;5080342;28;20800;-83
2022/01/19 04:01:42;;;;;;;8.97;7.67;;;2.80;77.80;;;1.22;80.28;99347.31;5076139;28;20444;-84
2022/01/19 04:06:58;;;;;;;8.10;6.87;;;2.70;77.80;;;0.97;81.04;99346.56;5074289;28;20449;-82
2022/01/19 04:09:26;;;;;;;9.30;7.80;;;2.60;77.80;;;1.07;80.82;99352.06;5078619;28;20452;-82
2022/01/19 04:11:54;;;;;;;8.10;7.30;;;2.60;78.10;;;0.99;81.07;99345.50;5064519;28;20481;-83
2022/01/19 04:14:25;;;;;;;12.27;7.30;;;2.60;78.00;;;0.49;81.03;99263.38;5083461;28;20441;-88
2022/01/19 04:16:57;;;;;;;10.17;7.83;;;2.50;78.20;;;0.91;81.03;99342.63;5076358;28;20505;-88
2022/01/19 04:19:28;;;;;;;9.23;8.23;;;2.50;78.20;;;0.80;81.53;99338.13;5082584;28;20434;-88
2022/01/19 04:21:58;;;;;;;8.90;8.00;;;2.40;78.40;;;0.65;82.25;99331.31;5060421;28;20444;-86
2022/01/19 04:24:27;;;;;;;10.10;7.90;;;2.30;79.00;;;0.66;82.11;99322.38;5076721;28;20443;-81
2022/01/19 04:29:39;;;;;;;9.37;8.40;;;2.20;79.30;;;0.59;82.45;99315.84;5056807;28;20448;-81
2022/01/19 04:32:12;;;;;;;12.23;8.10;;;2.20;79.60;;;0.53;83.00;99319.84;5075353;28;20982;-83
2022/01/19 04:34:41;;;;;;;10.70;8.50;;;2.10;80.00;;;0.35;83.93;99300.81;5057701;28;20525;-84
2022/01/19 04:37:29;;;;;;;9.00;8.10;;;2.00;80.60;;;-0.15;83.89;99236.34;5057795;28;20437;-86
2022/01/19 04:48:28;;;;;;;10.93;9.53;;;1.60;83.40;;;-0.04;85.89;99299.31;5000623;28;20468;-84
2022/01/19 05:02:13;;;;;;;11.60;9.27;;;1.60;85.90;;;0.23;85.91;99274.25;5057240;28;20442;-85
2022/01/19 05:04:51;;;;;;;14.20;9.63;;;1.80;85.50;;;0.28;85.78;99279.19;5059976;28;20472;-84
2022/01/19 05:07:23;;;;;;;11.63;9.43;;;1.80;84.90;;;-0.13;86.05;99203.50;5057253;28;20465;-80
2022/01/19 05:10:01;;;;;;;11.77;8.97;;;1.80;85.10;;;0.47;85.30;99267.13;5075164;28;20897;-87
2022/01/19 05:15:13;;;;;;;10.63;9.53;;;2.10;83.70;;;0.66;84.25;99264.72;5074687;28;20430;-81
2022/01/19 05:17:40;;;;;;;13.10;10.17;;;2.20;83.10;;;0.60;84.67;99265.19;5074865;28;20901;-79
2022/01/19 05:20:12;;;;;;;12.13;10.33;;;2.20;83.10;;;0.64;84.20;99268.44;5074334;28;20528;-82
2022/01/19 05:22:39;;;;;;;9.80;8.80;;;2.20;82.70;;;0.77;84.37;99257.72;5072938;28;20924;-81
2022/01/19 05:25:07;;;;;;;11.67;9.07;;;2.30;83.30;;;0.69;83.92;99255.66;5073853;28;20438;-81
2022/01/19 05:27:34;;;;;;;12.03;8.90;;;2.30;82.30;;;0.71;83.96;99248.41;5074123;28;20555;-79
2022/01/19 05:30:01;;;;;;;9.43;8.27;;;2.30;82.70;;;0.61;84.08;99245.63;5055705;28;20445;-80
2022/01/19 05:32:28;;;;;;;9.77;8.77;;;2.20;82.70;;;0.67;83.79;99239.81;5074138;28;20430;-79
2022/01/19 05:34:55;;;;;;;10.57;8.97;;;2.30;82.00;;;0.76;83.61;99232.91;5056144;28;20477;-82
2022/01/19 05:37:24;;;;;;;12.57;9.17;;;2.30;81.60;;;0.76;83.23;99224.06;5056234;28;20445;-84
2022/01/19 05:39:51;;;;;;;10.63;8.47;;;2.30;81.70;;;0.82;83.09;99224.41;5073797;28;20528;-75
2022/01/19 05:42:18;;;;;;;10.00;8.93;;;2.40;81.50;;;0.89;83.04;99222.09;5071956;28;20521;-75
2022/01/19 05:44:47;;;;;;;11.07;8.27;;;2.40;81.50;;;1.02;82.46;99219.31;5073925;28;20426;-74
2022/01/19 05:47:18;;;;;;;11.37;8.40;;;2.50;81.50;;;1.07;81.67;99209.13;5077320;28;20512;-88
2022/01/19 05:49:44;;;;;;;9.10;7.60;;;2.60;80.30;;;1.06;81.87;99218.09;5077734;28;20493;-88
2022/01/19 05:52:12;;;;;;;11.57;8.60;;;2.60;80.30;;;1.13;82.03;99213.94;5078605;28;20477;-87
2022/01/19 05:54:41;;;;;;;15.90;9.03;;;2.60;80.50;;;1.11;81.49;99220.38;5077359;28;20532;-89
2022/01/19 05:57:09;;;;;;;10.07;7.47;;;2.60;79.90;;;0.98;81.73;99205.41;5079095;28;20447;-90
2022/01/19 05:59:36;;;;;;;10.97;7.90;;;2.60;79.80;;;0.96;82.14;99209.16;5058396;28;20433;-81
2022/01/19 06:02:04;;;;;;;10.40;8.63;;;2.50;79.90;;;1.04;81.92;99214.72;5076098;28;20925;-86
2022/01/19 06:04:31;;;;;;;13.07;7.30;;;2.50;80.30;;;0.58;81.79;99133.28;5074753;28;20525;-86
2022/01/19 06:06:58;;;;;;;9.40;7.93;;;2.60;80.10;;;0.96;82.07;99212.66;5076910;28;21003;-87
2022/01/19 06:09:35;;;;;;;10.83;8.00;;;2.50;80.10;;;0.90;82.08;99210.50;5077859;28;20465;-86
2022/01/19 06:12:07;;;;;;;11.10;8.50;;;2.50;79.90;;;0.46;82.67;99135.13;5076586;28;20439;-85
2022/01/19 06:14:36;;;;;;;10.80;7.67;;;2.40;80.50;;;1.02;81.91;99183.84;5074461;28;20487;-88
2022/01/19 06:17:05;;;;;;;12.07;8.10;;;2.50;80.20;;;1.01;81.54;99188.34;5075537;28;20480;-88
2022/01/19 06:19:32;;;;;;;10.60;7.50;;;2.50;80.00;;;1.08;80.84;99178.88;5075409;28;20468;-87
2022/01/19 06:21:59;;;;;;;8.53;7.33;;;2.50;79.60;;;0.98;81.22;99172.59;5058579;28;20441;-86
2022/01/19 06:24:27;;;;;;;10.10;8.10;;;2.50;79.50;;;0.82;81.49;99149.91;5075563;28;20532;-84
2022/01/19 06:26:54;;;;;;;8.97;7.50;;;2.50;79.90;;;0.87;82.23;99170.00;5074386;28;20434;-84
2022/01/19 06:29:23;;;;;;;11.33;7.13;;;2.40;79.90;;;0.99;81.03;99164.50;5056599;28;20453;-86
2022/01/19 06:31:51;;;;;;;7.80;7.00;;;2.50;79.90;;;0.82;81.57;99151.75;5059212;28;20474;-86
2022/01/19 06:34:20;;;;;;;10.87;7.13;;;2.40;79.70;;;0.98;84.51;99154.84;5057266;28;20512;-87
2022/01/19 06:36:48;;;;;;;19.93;12.83;;;2.40;83.40;;;1.13;84.37;99159.88;5075285;28;20437;-83
2022/01/19 06:39:15;;;;;;;15.27;7.53;;;2.50;84.80;;;0.84;81.78;99155.13;5056756;28;20809;-84
2022/01/19 06:41:42;;;;;;;13.20;7.67;;;2.40;80.30;;;0.20;82.48;99088.38;5057088;28;20526;-86
2022/01/19 06:44:09;;;;;;;8.17;7.33;;;2.20;80.30;;;0.54;82.50;99149.50;5074877;28;20436;-83
2022/01/19 06:46:37;;;;;;;11.43;7.33;;;2.10;80.60;;;-0.12;83.57;99094.44;5078030;28;20433;-84
2022/01/19 06:49:04;;;;;;;12.83;7.80;;;1.90;81.30;;;0.14;84.01;99156.16;5079565;28;20530;-83
2022/01/19 06:51:31;;;;;;;10.00;7.60;;;1.70;82.40;;;0.07;85.01;99160.28;5061702;28;20930;-81
2022/01/19 06:53:58;;;;;;;10.80;7.80;;;1.70;83.60;;;-0.01;85.51;99158.22;5080818;28;20519;-79
2022/01/19 06:56:25;;;;;;;10.13;6.97;;;1.50;84.10;;;-0.08;85.79;99157.00;5080770;28;20480;-81
2022/01/19 06:58:52;;;;;;;14.23;7.47;;;1.50;84.80;;;-0.24;86.67;99143.19;5059539;28;20850;-81
2022/01/19 07:01:19;;;;;;;10.27;7.20;;;1.40;86.00;;;-0.26;86.86;99139.81;5081840;28;20524;-80
2022/01/19 07:03:47;;;;;;;13.10;8.50;;;1.40;86.60;;;-0.34;86.86;99137.75;5063966;28;20450;-80
2022/01/19 07:06:15;;;;;;;12.17;8.23;;;1.30;87.10;;;-0.35;87.57;99130.75;5051112;28;20219;-82
2022/01/19 07:08:42;;;;;;;12.87;8.80;;;1.20;87.20;;;-0.44;87.54;99122.56;5073541;28;20458;-82
2022/01/19 07:11:09;;;;;;;10.90;7.90;;;1.20;87.90;;;-0.49;87.47;99119.38;5053549;28;20454;-83
2022/01/19 07:13:36;;;;;;;10.40;7.83;;;1.10;87.70;;;-0.54;88.17;99110.94;5073179;28;20469;-83
2022/01/19 07:16:04;;;;;;;16.50;7.73;;;1.10;88.10;;;-0.55;88.08;99108.38;5076842;28;20439;-81
2022/01/19 07:18:31;;;;;;;12.13;7.73;;;1.10;88.50;;;-0.60;87.95;99093.66;5077671;28;20441;-80
2022/01/19 07:20:59;;;;;;;10.27;8.03;;;1.00;88.50;;;-0.78;88.82;99079.16;5066074;28;20458;-82
2022/01/19 07:23:26;;;;;;;13.60;7.90;;;0.90;89.20;;;-0.84;88.80;99080.44;5056789;28;20438;-83
2022/01/19 07:25:53;;;;;;;15.90;8.20;;;0.80;89.40;;;-0.72;89.23;99078.66;5056549;28;20460;-80
2022/01/19 07:28:20;;;;;;;11.67;8.00;;;0.80;90.30;;;-0.58;88.51;99073.16;5056227;28;20512;-80
2022/01/19 07:30:47;;;;;;;11.87;8.53;;;0.90;90.30;;;-0.60;88.71;99079.56;5038601;28;20913;-79
2022/01/19 07:33:14;;;;;;;10.53;8.10;;;0.90;90.30;;;-0.62;88.27;99055.78;5038010;28;20442;-81
2022/01/19 07:35:41;;;;;;;13.57;7.30;;;1.00;89.80;;;-0.53;88.09;99064.84;5056943;28;20449;-81
2022/01/19 07:38:09;;;;;;;9.07;6.63;;;1.00;90.20;;;-0.55;87.78;99060.59;5056100;28;20451;-81
2022/01/19 07:40:36;;;;;;;8.57;6.33;;;1.00;88.10;;;-0.65;87.26;99065.78;5056253;28;20934;-81
2022/01/19 07:43:04;;;;;;;9.73;6.60;;;1.00;87.50;;;-0.72;87.94;99050.31;5055668;28;20544;-79
2022/01/19 07:45:31;;;;;;;9.23;7.43;;;1.00;88.60;;;-0.64;88.01;99060.34;5056364;28;20518;-80
2022/01/19 07:47:57;;;;;;;9.90;8.37;;;1.00;88.90;;;-0.61;87.87;99068.06;5055987;28;20492;-80
2022/01/19 07:50:25;;;;;;;8.23;7.30;;;1.00;88.30;;;-0.40;87.06;99050.59;5055493;28;20508;-81
2022/01/19 07:52:52;;;;;;;8.47;6.53;;;1.10;88.00;;;-0.32;87.04;99051.69;5055308;28;20960;-81
2022/01/19 07:55:20;;;;;;;12.03;7.77;;;1.10;88.50;;;-0.41;86.58;99043.59;5055310;28;20795;-81
2022/01/19 07:57:50;;;;;;;11.20;7.43;;;1.20;86.70;;;-0.90;86.10;98967.66;5055256;28;20529;-81
2022/01/19 08:00:18;;;;;;;10.77;7.53;;;1.10;86.70;;;-0.51;86.68;99038.16;5038261;28;20426;-81
2022/01/19 08:02:45;;;;;;;12.63;7.50;;;1.10;86.60;;;-0.32;86.97;99041.06;5037685;28;20447;-78
2022/01/19 08:05:12;;;;;;;11.90;8.90;;;1.20;87.10;;;-0.35;86.80;99041.31;5054129;28;20525;-81
2022/01/19 08:07:39;;;;;;;9.87;7.17;;;1.20;86.40;;;-0.12;86.27;99045.78;5055457;28;20485;-81
2022/01/19 08:10:09;;;;;;;9.70;7.30;;;1.30;86.80;;;-0.67;85.92;98973.00;5056262;28;20461;-81
2022/01/19 08:12:38;;;;;;;12.93;7.50;;;1.30;85.60;;;0.03;85.38;99049.00;5056118;28;20465;-82
2022/01/19 08:15:06;;;;;;;11.47;8.10;;;1.50;85.70;;;-0.09;85.29;99040.22;5038636;28;20478;-81
2022/01/19 08:17:34;;;;;;;9.70;7.70;;;1.40;85.10;;;-0.18;85.27;99041.78;5054161;28;20438;-82
2022/01/19 08:20:01;;;;;;;11.57;7.03;;;1.40;84.30;;;-0.19;85.59;99032.13;5055326;28;20445;-81
2022/01/19 08:22:28;;;;;;;10.30;6.87;;;1.40;84.70;;;-0.22;85.68;99043.00;5054336;28;20521;-82
2022/01/19 08:24:55;;;;;;;9.50;6.93;;;1.40;84.70;;;-0.30;86.42;99027.69;5055502;28;20481;-80
2022/01/19 08:27:22;;;;;;;11.37;7.47;;;1.30;85.60;;;-0.09;86.27;99033.06;5055132;28;20442;-82
2022/01/19 08:29:50;;;;;;;11.80;8.33;;;1.40;86.00;;;-0.04;85.30;99027.41;5036710;28;20885;-80
2022/01/19 08:32:18;;;;;;;7.83;6.67;;;1.40;84.70;;;0.04;84.68;99018.81;5054953;28;20519;-82
2022/01/19 08:34:45;;;;;;;8.33;6.67;;;1.50;83.80;;;0.02;84.71;99031.38;5053929;28;20902;-81
2022/01/19 08:37:15;;;;;;;10.40;8.17;;;1.50;83.70;;;0.05;84.73;99020.50;5055589;28;20506;-81
2022/01/19 08:39:42;;;;;;;16.23;7.70;;;1.60;83.60;;;0.14;84.02;99031.22;5037084;28;20477;-80
2022/01/19 08:42:10;;;;;;;13.97;8.03;;;1.60;82.60;;;0.25;83.17;99027.72;5036895;28;20968;-82
2022/01/19 08:44:38;;;;;;;10.80;7.00;;;1.70;82.10;;;0.19;82.41;99024.72;5036945;28;20807;-81
2022/01/19 08:47:07;;;;;;;12.23;7.83;;;1.80;80.30;;;0.20;82.15;99023.75;5054177;28;20879;-81
2022/01/19 08:49:35;;;;;;;9.43;7.30;;;1.70;79.60;;;0.25;81.63;99024.22;5055588;28;20969;-80
2022/01/19 08:52:03;;;;;;;10.57;7.60;;;1.80;79.40;;;0.27;81.48;99022.28;5053606;28;20446;-81
2022/01/19 08:54:30;;;;;;;13.00;7.53;;;1.80;79.10;;;0.41;80.79;99022.00;5039261;28;20832;-84
2022/01/19 08:57:00;;;;;;;13.93;7.27;;;1.90;78.80;;;0.33;80.65;99026.25;5064520;28;20439;-82
2022/01/19 08:59:27;;;;;;;9.13;6.23;;;1.90;78.30;;;0.47;80.14;99020.66;5039790;28;20514;-83
2022/01/19 09:01:54;;;;;;;11.90;6.53;;;2.00;78.20;;;0.42;79.21;99014.88;5064343;28;20454;-82
2022/01/19 09:04:22;;;;;;;14.27;7.07;;;2.00;77.30;;;0.62;78.86;99017.69;5064743;28;20442;-81
2022/01/19 09:06:49;;;;;;;8.57;5.60;;;2.10;77.20;;;0.58;78.14;99010.94;5063241;28;20525;-82
2022/01/19 09:09:16;;;;;;;12.33;5.67;;;2.10;76.20;;;0.54;77.94;99008.53;5062405;28;20554;-80
2022/01/19 09:11:43;;;;;;;8.17;4.83;;;2.10;75.70;;;0.56;77.82;99000.44;5047627;28;20477;-81
2022/01/19 09:14:10;;;;;;;7.93;5.33;;;2.10;75.80;;;0.45;77.71;98980.03;5052891;28;20452;-81
2022/01/19 09:16:38;;;;;;;9.23;5.30;;;2.20;75.60;;;0.52;77.99;98996.34;5063156;28;20461;-80
2022/01/19 09:19:07;;;;;;;8.63;5.63;;;2.20;76.00;;;0.58;78.01;99008.28;5057979;28;20942;-81
2022/01/19 09:21:36;;;;;;;9.60;5.33;;;2.20;75.60;;;0.65;77.42;98997.00;5054391;28;20434;-80
2022/01/19 09:24:03;;;;;;;8.93;5.40;;;2.20;75.40;;;0.78;77.19;98996.81;5054743;28;20452;-82
2022/01/19 09:26:30;;;;;;;11.17;5.73;;;2.30;75.50;;;0.66;77.35;99003.16;5052855;28;20496;-81
2022/01/19 09:28:57;;;;;;;8.40;6.00;;;2.30;75.30;;;0.62;77.22;99004.41;5036870;28;20457;-82
2022/01/19 09:31:24;;;;;;;10.90;6.70;;;2.20;75.00;;;0.66;77.21;98997.84;5053922;28;20768;-81
2022/01/19 09:33:56;;;;;;;12.43;7.23;;;2.30;75.10;;;0.74;77.27;98990.06;5054115;28;20434;-81
2022/01/19 09:36:32;;;;;;;9.77;6.93;;;2.30;75.20;;;0.78;76.89;98990.66;5036287;28;20443;-82
2022/01/19 09:39:01;;;;;;;8.73;6.53;;;2.40;74.80;;;0.97;76.02;98984.63;5053883;28;20444;-81
2022/01/19 09:41:29;;;;;;;14.63;7.90;;;2.60;74.40;;;0.92;76.45;98978.84;5036039;28;20478;-79
2022/01/19 09:43:56;;;;;;;13.30;6.70;;;2.60;74.50;;;1.07;75.90;98985.53;5054773;28;20457;-80
2022/01/19 09:46:24;;;;;;;10.37;7.70;;;2.70;74.40;;;1.24;75.27;98985.91;5060265;28;20478;-82
2022/01/19 09:48:51;;;;;;;12.87;7.90;;;2.80;74.00;;;1.08;76.05;98991.72;5061046;28;20525;-82
2022/01/19 09:51:19;;;;;;;16.40;7.93;;;2.70;74.30;;;0.73;76.42;98963.59;5053093;28;20453;-83
2022/01/19 09:53:49;;;;;;;11.03;8.40;;;2.60;74.10;;;0.88;77.10;98988.06;5054837;28;20478;-82
2022/01/19 09:56:19;;;;;;;8.83;7.67;;;2.50;74.60;;;0.83;76.80;98976.00;5036877;28;20444;-80
2022/01/19 09:58:46;;;;;;;16.77;9.90;;;2.50;74.60;;;0.83;77.39;98976.00;5054724;28;20462;-81
2022/01/19 10:01:19;;;;;;;14.00;8.70;;;2.50;74.80;;;0.87;77.35;98962.44;5053892;28;20442;-80
2022/01/19 10:03:46;;;;;;;12.00;7.70;;;2.40;74.90;;;1.01;76.20;98955.94;5053894;28;20914;-79
2022/01/19 10:06:15;;;;;;;10.23;8.50;;;2.60;74.40;;;0.83;76.80;98956.53;5036061;28;20457;-78
2022/01/19 10:08:45;;;;;;;13.43;9.40;;;2.50;74.50;;;0.94;76.97;98947.63;5052118;28;20452;-77
2022/01/19 10:11:20;;;;;;;13.00;9.47;;;2.50;74.80;;;0.95;77.27;98957.28;5053708;28;20448;-80
2022/01/19 10:19:23;;;;;;;13.03;9.70;;;2.70;74.50;;;1.01;77.10;98947.94;5054879;28;20438;-78
2022/01/19 10:22:10;;;;;;;15.83;9.87;;;2.60;74.70;;;1.22;76.28;98945.25;5041830;28;20999;-79
2022/01/19 10:24:47;;;;;;;18.60;10.60;;;2.70;74.50;;;1.16;76.75;98945.81;5057333;28;20438;-79
2022/01/19 10:27:21;;;;;;;16.03;10.43;;;2.80;74.50;;;0.99;77.10;98945.44;5057153;28;20467;-78
2022/01/19 10:29:50;;;;;;;22.27;11.20;;;2.70;74.60;;;0.94;77.37;98939.63;5039677;28;20471;-78
2022/01/19 10:32:20;;;;;;;14.77;9.40;;;2.60;74.70;;;1.01;76.93;98939.97;5055423;28;20434;-79
2022/01/19 10:34:47;;;;;;;14.73;10.23;;;2.60;74.80;;;1.19;76.46;98946.34;5057000;28;20430;-79
2022/01/19 10:37:13;;;;;;;16.37;11.60;;;2.70;74.70;;;1.11;76.65;98938.19;5056755;28;20525;-78
2022/01/19 10:39:45;;;;;;;18.43;11.47;;;2.70;74.80;;;0.87;77.42;98935.84;5056765;28;20940;-78
2022/01/19 10:42:16;;;;;;;19.73;10.60;;;2.50;75.10;;;0.67;78.34;98915.25;5057454;28;20467;-79
2022/01/19 10:44:47;;;;;;;15.90;10.73;;;2.50;75.30;;;1.06;76.74;98919.97;5056800;28;20430;-80
2022/01/19 10:47:15;;;;;;;16.70;10.10;;;2.60;75.20;;;0.56;78.53;98933.94;5038507;28;20532;-82
2022/01/19 10:49:52;;;;;;;21.47;12.67;;;2.30;75.10;;;0.03;78.75;98863.00;5056356;28;20485;-81
2022/01/19 10:52:30;;;;;;;15.67;11.03;;;2.20;75.50;;;0.31;79.33;98922.72;5038464;28;20433;-83
2022/01/19 10:54:58;;;;;;;17.03;12.03;;;2.00;75.60;;;0.53;79.24;98929.72;5061807;28;20818;-80
2022/01/19 10:57:27;;;;;;;19.37;12.10;;;2.10;75.70;;;0.67;78.34;98933.88;5068446;28;20446;-80
2022/01/19 11:00:12;;;;;;;16.70;11.70;;;2.20;75.60;;;0.77;77.83;98917.16;5059722;28;20444;-80
2022/01/19 11:02:39;;;;;;;16.40;11.70;;;2.30;75.50;;;0.79;78.06;98918.69;5057522;28;20469;-81
2022/01/19 11:05:07;;;;;;;15.10;10.90;;;2.30;75.50;;;0.78;77.43;98911.69;5058224;28;21020;-80
2022/01/19 11:07:35;;;;;;;16.37;12.20;;;2.40;75.40;;;0.88;77.61;98927.69;5056716;28;20433;-79
2022/01/19 11:10:10;;;;;;;28.13;13.30;;;2.40;75.20;;;0.75;78.39;98916.41;5038336;28;20497;-81
2022/01/19 11:12:45;;;;;;;18.70;11.80;;;2.40;75.30;;;0.77;78.54;98917.97;5056187;28;20441;-81
2022/01/19 11:15:15;;;;;;;19.07;13.40;;;2.30;75.70;;;0.61;78.87;98905.16;5039242;28;20467;-80
2022/01/19 11:17:43;;;;;;;17.10;12.57;;;2.30;75.80;;;0.69;79.45;98904.50;5056870;28;20431;-82
2022/01/19 11:20:13;;;;;;;22.00;14.07;;;2.20;76.10;;;0.61;78.84;98878.56;5057997;28;20926;-80
2022/01/19 11:23:06;;;;;;;17.10;12.90;;;2.20;76.20;;;0.71;78.40;98881.25;5038527;28;20435;-81
2022/01/19 11:25:50;;;;;;;23.10;13.80;;;2.20;75.80;;;0.49;79.53;98868.94;5056934;28;20438;-81
2022/01/19 11:28:34;;;;;;;19.47;14.20;;;2.10;76.10;;;0.63;79.18;98865.09;5057506;28;20464;-82
2022/01/19 11:31:07;;;;;;;30.43;16.40;;;2.20;76.30;;;0.55;79.22;98858.63;5039324;28;20468;-81
2022/01/19 11:33:41;;;;;;;20.30;14.50;;;2.20;76.30;;;0.80;78.04;98856.50;5057604;28;20467;-81
2022/01/19 11:36:21;;;;;;;23.63;11.73;;;2.30;75.70;;;0.69;79.04;98852.13;5041224;28;20436;-87
2022/01/19 11:38:51;;;;;;;18.80;14.13;;;2.30;75.90;;;0.88;78.28;98857.69;5047086;28;20442;-82
2022/01/19 11:41:45;;;;;;;21.67;14.47;;;2.40;76.00;;;0.90;77.86;98847.75;5059971;28;20458;-81